createdAt,value
2022-12-11T00:02:02.215Z,6.53
2022-12-11T00:04:30.616Z,6.03
2022-12-11T00:07:00.010Z,6.13
2022-12-11T00:09:27.984Z,6.19
2022-12-11T00:11:56.329Z,7.48
2022-12-11T00:14:24.220Z,6.87
2022-12-11T00:16:52.142Z,7.66
2022-12-11T00:19:19.929Z,7.02
2022-12-11T00:21:48.012Z,6.64
2022-12-11T00:24:17.268Z,6.12
2022-12-11T00:26:45.037Z,5.86
2022-12-11T00:29:14.541Z,6.48
2022-12-11T00:31:45.675Z,7.78
2022-12-11T00:34:13.624Z,7.44
2022-12-11T00:36:41.650Z,8.27
2022-12-11T00:39:09.504Z,7.34
2022-12-11T00:41:38.722Z,5.95
2022-12-11T00:44:06.722Z,6.16
2022-12-11T00:46:34.601Z,7.86
2022-12-11T00:49:02.550Z,6.98
2022-12-11T00:51:30.468Z,5.95
2022-12-11T00:53:58.349Z,7.32
2022-12-11T00:56:26.242Z,6.97
2022-12-11T00:58:55.467Z,6.04
2022-12-11T01:01:25.164Z,6.97
2022-12-11T01:03:53.557Z,7.46
2022-12-11T01:06:24.351Z,6.82
2022-12-11T01:09:14.301Z,6.02
2022-12-11T01:11:42.509Z,6.48
2022-12-11T01:14:12.964Z,7.94
2022-12-11T01:16:40.953Z,7.25
2022-12-11T01:19:08.943Z,7.83
2022-12-11T01:21:36.786Z,8.39
2022-12-11T01:24:05.143Z,8.40
2022-12-11T01:26:33.059Z,8.10
2022-12-11T01:29:01.358Z,7.83
2022-12-11T01:31:30.733Z,5.96
2022-12-11T01:33:58.579Z,7.02
2022-12-11T01:36:26.397Z,6.23
2022-12-11T01:38:54.472Z,5.93
2022-12-11T01:41:22.819Z,6.09
2022-12-11T01:44:01.364Z,5.59
2022-12-11T01:46:31.415Z,5.07
2022-12-11T01:49:00.068Z,4.92
2022-12-11T01:51:28.423Z,6.46
2022-12-11T01:54:00.788Z,7.20
2022-12-11T01:56:31.365Z,7.63
2022-12-11T01:59:07.013Z,6.80
2022-12-11T02:01:38.941Z,7.34
2022-12-11T02:04:08.210Z,8.31
2022-12-11T02:06:38.177Z,8.17
2022-12-11T02:09:08.008Z,7.73
2022-12-11T02:11:51.621Z,6.41
2022-12-11T02:14:28.687Z,7.02
2022-12-11T02:17:02.868Z,7.19
2022-12-11T02:19:46.456Z,7.14
2022-12-11T02:22:19.595Z,6.83
2022-12-11T02:24:55.757Z,6.38
2022-12-11T02:27:30.440Z,5.32
2022-12-11T02:30:03.461Z,5.42
2022-12-11T02:32:35.408Z,6.42
2022-12-11T02:35:09.465Z,6.63
2022-12-11T02:37:39.217Z,5.24
2022-12-11T02:40:11.277Z,6.27
2022-12-11T02:42:41.611Z,6.74
2022-12-11T02:45:12.855Z,7.65
2022-12-11T02:47:41.307Z,6.46
2022-12-11T02:50:14.721Z,5.82
2022-12-11T02:52:43.715Z,5.44
2022-12-11T02:55:13.982Z,6.02
2022-12-11T02:57:46.185Z,5.96
2022-12-11T03:00:16.685Z,6.20
2022-12-11T03:02:45.096Z,6.15
2022-12-11T03:05:13.684Z,4.85
2022-12-11T03:07:43.928Z,5.88
2022-12-11T03:10:15.561Z,5.62
2022-12-11T03:12:48.121Z,7.96
2022-12-11T03:15:23.084Z,7.22
2022-12-11T03:17:59.962Z,8.11
2022-12-11T03:20:36.569Z,5.85
2022-12-11T03:23:10.878Z,7.34
2022-12-11T03:25:43.551Z,7.17
2022-12-11T03:28:14.003Z,6.99
2022-12-11T03:30:45.278Z,7.82
2022-12-11T03:33:17.164Z,7.76
2022-12-11T03:35:46.694Z,5.20
2022-12-11T03:38:18.533Z,5.88
2022-12-11T03:40:47.812Z,8.33
2022-12-11T03:43:18.815Z,7.71
2022-12-11T03:45:50.188Z,5.96
2022-12-11T03:48:18.813Z,6.86
2022-12-11T03:50:47.302Z,6.59
2022-12-11T03:53:16.252Z,7.14
2022-12-11T03:55:44.234Z,7.17
2022-12-11T03:58:12.063Z,6.19
2022-12-11T04:00:40.212Z,5.92
2022-12-11T04:03:15.873Z,5.15
2022-12-11T04:05:45.680Z,6.45
2022-12-11T04:08:14.019Z,7.13
2022-12-11T04:10:42.114Z,5.99
2022-12-11T04:13:11.984Z,5.28
2022-12-11T04:15:39.838Z,6.48
2022-12-11T04:18:26.894Z,5.78
2022-12-11T04:21:12.850Z,4.92
2022-12-11T04:23:58.084Z,6.92
2022-12-11T04:26:26.122Z,4.84
2022-12-11T04:28:53.896Z,5.32
2022-12-11T04:31:23.143Z,6.84
2022-12-11T04:33:53.181Z,8.06
2022-12-11T04:36:21.197Z,7.17
2022-12-11T04:38:48.966Z,7.95
2022-12-11T04:41:17.543Z,6.78
2022-12-11T04:43:46.093Z,6.37
2022-12-11T04:46:16.095Z,5.88
2022-12-11T04:48:44.551Z,5.60
2022-12-11T04:51:14.213Z,5.96
2022-12-11T04:53:42.220Z,6.72
2022-12-11T04:56:11.561Z,5.87
2022-12-11T04:58:39.890Z,6.30
2022-12-11T05:01:11.374Z,6.83
2022-12-11T05:03:39.368Z,6.45
2022-12-11T05:06:08.102Z,5.04
2022-12-11T05:08:40.128Z,6.08
2022-12-11T05:11:10.045Z,6.08
2022-12-11T05:13:37.901Z,4.66
2022-12-11T05:16:06.724Z,5.54
2022-12-11T05:18:34.931Z,4.79
2022-12-11T05:21:05.074Z,5.04
2022-12-11T05:23:33.389Z,5.89
2022-12-11T05:26:04.904Z,5.02
2022-12-11T05:28:34.538Z,3.33
2022-12-11T05:31:04.305Z,5.91
2022-12-11T05:33:32.691Z,4.95
2022-12-11T05:36:00.450Z,6.19
2022-12-11T05:38:28.461Z,6.45
2022-12-11T05:40:57.926Z,8.23
2022-12-11T05:43:28.204Z,6.64
2022-12-11T05:45:56.278Z,6.19
2022-12-11T05:48:24.446Z,7.51
2022-12-11T05:50:59.191Z,9.37
2022-12-11T05:53:27.411Z,7.41
2022-12-11T05:55:55.445Z,8.00
2022-12-11T05:58:23.346Z,7.77
2022-12-11T06:00:52.555Z,7.93
2022-12-11T06:03:20.437Z,7.77
2022-12-11T06:05:48.310Z,6.63
2022-12-11T06:08:16.251Z,6.94
2022-12-11T06:10:46.821Z,6.17
2022-12-11T06:13:15.031Z,7.72
2022-12-11T06:15:43.064Z,6.92
2022-12-11T06:18:12.279Z,4.43
2022-12-11T06:20:40.407Z,4.46
2022-12-11T06:23:08.400Z,5.54
2022-12-11T06:25:36.340Z,6.19
2022-12-11T06:28:04.212Z,5.23
2022-12-11T06:30:38.594Z,6.39
2022-12-11T06:33:07.281Z,7.41
2022-12-11T06:35:41.976Z,7.07
2022-12-11T06:38:10.927Z,6.41
2022-12-11T06:40:38.806Z,7.49
2022-12-11T06:43:06.882Z,5.95
2022-12-11T06:45:34.698Z,4.39
2022-12-11T06:48:02.636Z,6.73
2022-12-11T06:50:30.432Z,4.83
2022-12-11T06:52:59.575Z,6.79
2022-12-11T06:55:27.381Z,6.44
2022-12-11T06:57:55.197Z,5.04
2022-12-11T07:00:23.216Z,4.96
2022-12-11T07:02:52.300Z,4.21
2022-12-11T07:05:20.120Z,5.12
2022-12-11T07:07:48.041Z,6.13
2022-12-11T07:10:17.525Z,6.48
2022-12-11T07:12:45.461Z,6.43
2022-12-11T07:15:13.949Z,5.44
2022-12-11T07:17:41.831Z,6.18
2022-12-11T07:20:10.811Z,4.69
2022-12-11T07:22:44.634Z,5.07
2022-12-11T07:25:14.231Z,3.27
2022-12-11T07:27:43.560Z,4.22
2022-12-11T07:30:12.335Z,6.05
2022-12-11T07:32:40.181Z,6.19
2022-12-11T07:35:09.030Z,6.65
2022-12-11T07:37:38.133Z,6.98
2022-12-11T07:40:07.725Z,6.12
2022-12-11T07:42:35.521Z,5.24
2022-12-11T07:45:05.422Z,4.09
2022-12-11T07:47:34.505Z,4.66
2022-12-11T07:50:02.306Z,4.96
2022-12-11T07:52:30.187Z,5.38
2022-12-11T07:54:58.155Z,5.76
2022-12-11T07:57:26.140Z,6.73
2022-12-11T07:59:54.044Z,6.24
2022-12-11T08:02:23.354Z,6.45
2022-12-11T08:04:51.526Z,6.56
2022-12-11T08:07:19.359Z,6.50
2022-12-11T08:09:47.248Z,5.95
2022-12-11T08:12:15.112Z,6.67
2022-12-11T08:14:43.086Z,7.10
2022-12-11T08:17:10.867Z,7.45
2022-12-11T08:19:40.129Z,7.61
2022-12-11T08:22:08.353Z,7.27
2022-12-11T08:24:36.210Z,7.10
2022-12-11T08:27:04.208Z,7.33
2022-12-11T08:29:32.055Z,7.14
2022-12-11T08:31:59.852Z,7.76
2022-12-11T08:34:27.881Z,8.00
2022-12-11T08:36:57.032Z,6.92
2022-12-11T08:39:25.212Z,6.05
2022-12-11T08:41:53.061Z,5.85
2022-12-11T08:44:21.149Z,6.89
2022-12-11T08:46:49.244Z,6.94
2022-12-11T08:49:17.499Z,6.87
2022-12-11T08:51:45.304Z,6.98
2022-12-11T08:54:14.577Z,6.84
2022-12-11T08:56:42.457Z,6.63
2022-12-11T08:59:10.821Z,6.98
2022-12-11T09:01:38.645Z,6.03
2022-12-11T09:04:06.639Z,5.88
2022-12-11T09:06:34.814Z,6.75
2022-12-11T09:09:04.507Z,6.56
2022-12-11T09:11:35.824Z,5.99
2022-12-11T09:14:07.673Z,5.36
2022-12-11T09:16:41.345Z,6.86
2022-12-11T09:19:12.511Z,7.32
2022-12-11T09:21:40.370Z,6.16
2022-12-11T09:24:10.554Z,6.25
2022-12-11T09:26:39.974Z,6.94
2022-12-11T09:29:08.161Z,6.29
2022-12-11T09:31:37.362Z,7.27
2022-12-11T09:34:07.275Z,6.57
2022-12-11T09:36:35.336Z,6.66
2022-12-11T09:39:04.549Z,6.17
2022-12-11T09:41:42.056Z,6.82
2022-12-11T09:44:35.704Z,7.51
2022-12-11T09:47:03.813Z,6.70
2022-12-11T09:49:37.040Z,7.47
2022-12-11T09:52:12.503Z,6.39
2022-12-11T09:54:45.435Z,6.85
2022-12-11T09:57:25.215Z,4.94
2022-12-11T10:00:06.006Z,6.47
2022-12-11T10:02:43.651Z,4.25
2022-12-11T10:05:18.662Z,4.49
2022-12-11T10:07:49.999Z,4.45
2022-12-11T10:10:24.774Z,6.66
2022-12-11T10:13:02.995Z,4.82
2022-12-11T10:15:37.902Z,4.59
2022-12-11T10:18:08.063Z,3.81
2022-12-11T10:20:39.432Z,6.10
2022-12-11T10:23:09.020Z,5.82
2022-12-11T10:25:38.699Z,5.41
2022-12-11T10:28:15.726Z,5.15
2022-12-11T10:30:49.657Z,6.68
2022-12-11T10:33:22.483Z,7.66
2022-12-11T10:35:52.534Z,6.32
2022-12-11T10:38:23.255Z,7.51
2022-12-11T10:40:53.746Z,6.29
2022-12-11T10:43:33.821Z,7.02
2022-12-11T10:46:01.704Z,7.28
2022-12-11T10:48:29.580Z,6.15
2022-12-11T10:51:00.386Z,6.68
2022-12-11T10:53:29.074Z,7.25
2022-12-11T10:55:58.623Z,5.65
2022-12-11T10:58:31.808Z,4.76
2022-12-11T11:05:13.835Z,6.28
2022-12-11T11:07:42.025Z,7.51
2022-12-11T11:10:19.709Z,7.35
2022-12-11T11:12:49.491Z,7.85
2022-12-11T11:15:20.594Z,8.22
2022-12-11T11:17:54.881Z,7.66
2022-12-11T11:20:25.259Z,7.50
2022-12-11T11:22:57.353Z,5.70
2022-12-11T11:25:26.459Z,6.08
2022-12-11T11:27:55.797Z,7.14
2022-12-11T11:30:26.761Z,7.61
2022-12-11T11:32:56.818Z,7.34
2022-12-11T11:35:26.572Z,8.66
2022-12-11T11:38:05.782Z,6.30
2022-12-11T11:40:38.569Z,5.71
2022-12-11T11:43:15.313Z,6.69
2022-12-11T11:45:48.267Z,7.33
2022-12-11T11:48:29.849Z,6.83
2022-12-11T11:50:58.102Z,4.77
2022-12-11T11:53:28.663Z,4.82
2022-12-11T11:56:06.867Z,7.25
2022-12-11T12:11:08.094Z,6.09
2022-12-11T12:13:59.830Z,4.83
2022-12-11T12:16:55.620Z,5.62
2022-12-11T12:19:47.914Z,6.05
2022-12-11T12:22:56.134Z,4.95
2022-12-11T12:25:30.612Z,5.30
2022-12-11T12:28:15.486Z,5.58
2022-12-11T12:31:02.009Z,7.40
2022-12-11T12:33:40.970Z,6.03
2022-12-11T12:53:17.572Z,7.47
2022-12-11T13:34:00.966Z,5.55
2022-12-11T13:37:37.854Z,7.74
2022-12-11T13:53:20.988Z,7.55
2022-12-11T13:57:16.683Z,6.46
2022-12-11T14:04:21.693Z,5.57
2022-12-11T14:08:45.009Z,6.42
2022-12-11T14:12:41.585Z,5.19
2022-12-11T14:42:55.669Z,7.19
2022-12-11T14:46:26.144Z,6.88
2022-12-11T14:49:04.292Z,7.15
2022-12-11T14:55:08.257Z,5.65
2022-12-11T14:57:58.366Z,6.77
2022-12-11T15:01:24.435Z,6.08
2022-12-11T15:04:47.373Z,6.47
2022-12-11T15:07:54.573Z,5.51
2022-12-11T15:10:45.898Z,5.75
2022-12-11T15:13:48.664Z,4.97
2022-12-11T15:16:52.415Z,5.44
2022-12-11T15:23:26.819Z,4.89
2022-12-11T15:27:27.855Z,4.24
2022-12-11T15:30:47.235Z,4.27
2022-12-11T15:33:42.871Z,3.93
2022-12-11T15:36:58.692Z,3.92
2022-12-11T15:40:21.695Z,4.18
2022-12-11T15:44:07.233Z,5.40
2022-12-11T15:47:17.070Z,6.56
2022-12-11T15:51:02.484Z,6.58
2022-12-11T16:03:02.420Z,6.27
2022-12-11T16:06:27.411Z,6.39
2022-12-11T16:09:23.841Z,6.69
2022-12-11T16:12:21.850Z,5.79
2022-12-11T16:15:27.873Z,7.42
2022-12-11T16:18:28.091Z,6.20
2022-12-11T16:21:04.727Z,6.56
2022-12-11T16:24:04.277Z,4.09
2022-12-11T16:35:55.663Z,6.48
2022-12-11T16:42:23.070Z,4.08
2022-12-11T16:44:58.587Z,4.13
2022-12-11T16:47:47.675Z,4.94
2022-12-11T16:50:21.497Z,5.11
2022-12-11T16:52:53.034Z,5.71
2022-12-11T16:55:23.974Z,4.83
2022-12-11T16:58:01.798Z,4.99
2022-12-11T17:00:37.407Z,4.05
2022-12-11T17:03:20.934Z,5.54
2022-12-11T17:05:54.307Z,4.67
2022-12-11T17:08:33.095Z,5.72
2022-12-11T17:11:30.986Z,5.69
2022-12-11T17:14:42.594Z,7.13
2022-12-11T17:19:59.602Z,5.10
2022-12-11T17:22:59.283Z,5.64
2022-12-11T17:25:34.524Z,5.22
2022-12-11T17:28:03.908Z,4.08
2022-12-11T17:30:34.426Z,5.54
2022-12-11T17:33:22.015Z,5.03
2022-12-11T17:35:54.745Z,5.93
2022-12-11T17:38:23.924Z,5.71
2022-12-11T17:40:55.201Z,6.04
2022-12-11T17:43:24.833Z,6.64
2022-12-11T17:45:55.682Z,4.49
2022-12-11T17:48:30.267Z,5.09
2022-12-11T17:50:59.529Z,5.06
2022-12-11T17:53:51.619Z,4.97
2022-12-11T17:56:38.914Z,4.72
2022-12-11T18:03:17.040Z,4.09
2022-12-11T18:06:28.497Z,6.36
2022-12-11T18:09:05.974Z,7.45
2022-12-11T18:11:35.543Z,4.81
2022-12-11T18:14:03.973Z,3.92
2022-12-11T18:16:36.006Z,5.15
2022-12-11T18:19:08.435Z,4.50
2022-12-11T18:21:41.602Z,5.05
2022-12-11T18:24:16.188Z,6.63
2022-12-11T18:26:45.094Z,6.11
2022-12-11T18:29:13.914Z,6.52
2022-12-11T18:31:47.930Z,6.68
2022-12-11T18:34:19.088Z,4.57
2022-12-11T18:36:54.932Z,5.96
2022-12-11T18:39:25.294Z,7.35
2022-12-11T18:42:24.354Z,6.53
2022-12-11T18:44:43.404Z,7.18
2022-12-11T18:47:12.100Z,7.47
2022-12-11T18:49:43.110Z,7.06
2022-12-11T18:52:16.044Z,5.01
2022-12-11T18:54:49.447Z,6.05
2022-12-11T18:57:18.640Z,5.75
2022-12-11T18:59:48.423Z,5.74
2022-12-11T19:02:16.463Z,6.09
2022-12-11T19:04:46.164Z,4.38
2022-12-11T19:07:14.696Z,5.79
2022-12-11T19:09:47.820Z,6.80
2022-12-11T19:12:19.972Z,5.63
2022-12-11T19:15:02.901Z,5.05
2022-12-11T19:17:31.547Z,5.28
2022-12-11T19:20:25.407Z,6.07
2022-12-11T19:22:59.566Z,4.94
2022-12-11T19:25:27.647Z,4.56
2022-12-11T19:27:58.689Z,5.16
2022-12-11T19:30:29.105Z,4.84
2022-12-11T19:33:01.760Z,3.19
2022-12-11T19:35:31.510Z,5.22
2022-12-11T19:37:59.799Z,5.01
2022-12-11T19:40:27.820Z,4.51
2022-12-11T19:42:56.228Z,5.55
2022-12-11T19:45:24.348Z,6.19
2022-12-11T19:47:53.190Z,6.48
2022-12-11T19:50:25.483Z,5.33
2022-12-11T19:52:56.805Z,6.15
2022-12-11T19:55:24.881Z,4.16
2022-12-11T19:57:53.312Z,4.03
2022-12-11T20:00:21.595Z,5.73
2022-12-11T20:02:50.656Z,3.07
2022-12-11T20:05:18.927Z,4.58
2022-12-11T20:07:47.188Z,5.73
2022-12-11T20:10:17.119Z,3.55
2022-12-11T20:12:48.445Z,3.29
2022-12-11T20:15:19.484Z,3.94
2022-12-11T20:17:47.713Z,4.51
2022-12-11T20:20:18.924Z,4.33
2022-12-11T20:22:47.861Z,6.26
2022-12-11T20:25:28.256Z,4.75
2022-12-11T20:27:58.060Z,5.31
2022-12-11T20:30:28.305Z,5.75
2022-12-11T20:32:56.688Z,5.41
2022-12-11T20:35:26.371Z,6.39
2022-12-11T20:37:57.701Z,5.26
2022-12-11T20:40:42.214Z,6.01
2022-12-11T20:43:10.613Z,5.75
2022-12-11T20:45:38.994Z,5.57
2022-12-11T20:48:07.784Z,6.10
2022-12-11T20:50:36.052Z,5.50
2022-12-11T20:53:04.356Z,5.48
2022-12-11T20:55:33.946Z,5.39
2022-12-11T20:58:02.441Z,5.82
2022-12-11T21:01:21.700Z,5.10
2022-12-11T21:03:53.574Z,5.97
2022-12-11T21:06:23.131Z,4.06
2022-12-11T21:08:51.705Z,3.88
2022-12-11T21:11:29.703Z,4.99
2022-12-11T21:13:59.284Z,5.38
2022-12-11T21:16:28.372Z,5.37
2022-12-11T21:18:59.911Z,3.96
2022-12-11T21:21:29.063Z,5.01
2022-12-11T21:23:57.193Z,5.31
2022-12-11T21:26:27.355Z,4.37
2022-12-11T21:28:57.958Z,3.52
2022-12-11T21:31:29.123Z,4.65
2022-12-11T21:33:58.916Z,4.48
2022-12-11T21:36:27.821Z,4.90
2022-12-11T21:38:55.910Z,4.99
2022-12-11T21:41:29.035Z,4.83
2022-12-11T21:46:55.895Z,5.55
2022-12-11T21:49:26.161Z,4.28
2022-12-11T21:51:55.464Z,4.64
2022-12-11T21:54:24.067Z,3.75
2022-12-11T21:56:54.907Z,3.09
2022-12-11T21:59:23.457Z,3.71
2022-12-11T22:01:51.971Z,4.13
2022-12-11T22:04:20.449Z,3.69
2022-12-11T22:06:48.946Z,4.55
2022-12-11T22:09:18.142Z,3.95
2022-12-11T22:11:47.345Z,3.41
2022-12-11T22:14:18.793Z,5.28
2022-12-11T22:16:48.191Z,5.43
2022-12-11T22:19:16.665Z,4.91
2022-12-11T22:21:44.713Z,3.72
2022-12-11T22:24:12.926Z,3.25
2022-12-11T22:26:41.303Z,3.75
2022-12-11T22:29:10.250Z,3.35
2022-12-11T22:31:40.536Z,2.87
2022-12-11T22:34:08.526Z,3.40
2022-12-11T22:36:40.169Z,4.58
2022-12-11T22:39:08.613Z,3.58
2022-12-11T22:41:41.930Z,6.36
2022-12-11T22:44:15.004Z,6.14
2022-12-11T22:46:49.702Z,8.16
2022-12-11T22:49:18.786Z,6.94
2022-12-11T22:51:48.948Z,6.31
2022-12-11T22:54:20.500Z,9.34
2022-12-11T22:56:48.959Z,7.03
2022-12-11T22:59:17.472Z,8.32
2022-12-11T23:01:50.827Z,8.62
2022-12-11T23:04:20.438Z,5.99
2022-12-11T23:06:49.041Z,6.56
2022-12-11T23:09:18.163Z,4.40
2022-12-11T23:11:47.601Z,6.85
2022-12-11T23:14:18.982Z,7.35
2022-12-11T23:16:49.472Z,6.45
2022-12-11T23:19:22.276Z,7.78
2022-12-11T23:21:54.657Z,6.27
2022-12-11T23:24:24.938Z,7.48
2022-12-11T23:26:54.082Z,6.66
2022-12-11T23:29:22.386Z,7.91
2022-12-11T23:31:51.699Z,6.10
2022-12-11T23:34:20.147Z,4.42
2022-12-11T23:36:48.098Z,6.49
2022-12-11T23:39:16.611Z,6.38
2022-12-11T23:41:44.945Z,6.62
2022-12-11T23:44:13.276Z,6.50
2022-12-11T23:46:42.600Z,6.76
2022-12-11T23:49:12.866Z,6.86
2022-12-11T23:51:43.662Z,5.87
2022-12-11T23:54:11.598Z,5.55
2022-12-11T23:56:40.077Z,5.39
2022-12-11T23:59:08.157Z,5.11
